Almo Heights, Kentucky
Current Conditions -  °F | °C
As of 12:35 AM on Thursday 27 Nov 2014 (Local Time) from KCEY Reporting Station
Overcast Overcast  
Wind Chill: 28°   Ceiling: 1100
Heat Index: 37°   Visibility: 10mi
Dew Point: 36°   Wind: 16mph
Humidity: 93%   Direction: 300°WNW
Pressure: 30.14"   Gusts: 25mph
Location:  36.7139°N, 88.3196°W
Report Text: KCEY 270635Z AUTO 30014G22KT 10SM BKN011 OVC018 03/02 A3014 RMK AO1
Loading
Personal Weather Stations






























Interactive Weather Map New forecast layout! Learn more

10-Day Weather Forecast

Advertisements
Track Severe Weather on mobile